sensor_id;sensor_type;location;lat;lon;timestamp;pressure;altitude;pressure_sealevel;temperature;humidity
72038;BME280;59900;50.788;12.904;2023-05-07T00:01:23;97813.56;;;11.75;84.61
72038;BME280;59900;50.788;12.904;2023-05-07T00:03:48;97807.50;;;11.74;85.53
72038;BME280;59900;50.788;12.904;2023-05-07T00:06:14;97811.75;;;11.75;84.85
72038;BME280;59900;50.788;12.904;2023-05-07T00:08:39;97811.34;;;11.72;85.16
72038;BME280;59900;50.788;12.904;2023-05-07T00:11:04;97815.16;;;11.69;84.99
72038;BME280;59900;50.788;12.904;2023-05-07T00:13:30;97812.72;;;11.68;85.08
72038;BME280;59900;50.788;12.904;2023-05-07T00:16:00;97812.72;;;11.68;85.53
72038;BME280;59900;50.788;12.904;2023-05-07T00:18:26;97812.72;;;11.68;85.03
72038;BME280;59900;50.788;12.904;2023-05-07T00:20:51;97813.50;;;11.68;84.85
72038;BME280;59900;50.788;12.904;2023-05-07T00:23:16;97807.84;;;11.65;84.27
72038;BME280;59900;50.788;12.904;2023-05-07T00:25:42;97812.06;;;11.59;83.56
72038;BME280;59900;50.788;12.904;2023-05-07T00:28:07;97813.06;;;11.58;83.32
72038;BME280;59900;50.788;12.904;2023-05-07T00:30:32;97812.63;;;11.55;83.23
72038;BME280;59900;50.788;12.904;2023-05-07T00:32:57;97809.78;;;11.50;82.68
72038;BME280;59900;50.788;12.904;2023-05-07T00:35:23;97817.88;;;11.48;83.81
72038;BME280;59900;50.788;12.904;2023-05-07T00:37:48;97808.53;;;11.46;83.04
72038;BME280;59900;50.788;12.904;2023-05-07T00:40:14;97808.13;;;11.42;83.46
72038;BME280;59900;50.788;12.904;2023-05-07T00:42:39;97810.75;;;11.42;84.27
72038;BME280;59900;50.788;12.904;2023-05-07T00:45:05;97811.94;;;11.40;83.60
72038;BME280;59900;50.788;12.904;2023-05-07T00:47:30;97816.81;;;11.43;82.94
72038;BME280;59900;50.788;12.904;2023-05-07T00:49:56;97822.09;;;11.43;83.69
72038;BME280;59900;50.788;12.904;2023-05-07T00:52:23;97809.56;;;11.45;83.96
72038;BME280;59900;50.788;12.904;2023-05-07T00:54:51;97806.94;;;11.45;84.28
72038;BME280;59900;50.788;12.904;2023-05-07T00:57:16;97796.41;;;11.45;82.66
72038;BME280;59900;50.788;12.904;2023-05-07T00:59:42;97799.81;;;11.39;82.45
72038;BME280;59900;50.788;12.904;2023-05-07T01:02:07;97809.97;;;11.42;83.56
72038;BME280;59900;50.788;12.904;2023-05-07T01:04:33;97803.66;;;11.43;83.59
72038;BME280;59900;50.788;12.904;2023-05-07T01:07:00;97804.69;;;11.42;82.88
72038;BME280;59900;50.788;12.904;2023-05-07T01:09:26;97806.13;;;11.44;83.81
72038;BME280;59900;50.788;12.904;2023-05-07T01:11:53;97810.75;;;11.42;82.38
72038;BME280;59900;50.788;12.904;2023-05-07T01:14:20;97815.22;;;11.42;83.12
72038;BME280;59900;50.788;12.904;2023-05-07T01:16:46;97809.72;;;11.37;83.34
72038;BME280;59900;50.788;12.904;2023-05-07T01:19:12;97810.72;;;11.36;84.06
72038;BME280;59900;50.788;12.904;2023-05-07T01:21:44;97809.09;;;11.35;84.14
72038;BME280;59900;50.788;12.904;2023-05-07T01:24:11;97809.28;;;11.33;82.94
72038;BME280;59900;50.788;12.904;2023-05-07T01:26:36;97813.53;;;11.34;83.74
72038;BME280;59900;50.788;12.904;2023-05-07T01:29:01;97803.22;;;11.33;83.41
72038;BME280;59900;50.788;12.904;2023-05-07T01:31:27;97804.00;;;11.27;82.36
72038;BME280;59900;50.788;12.904;2023-05-07T01:33:52;97803.34;;;11.24;82.75
72038;BME280;59900;50.788;12.904;2023-05-07T01:36:20;97801.53;;;11.25;82.86
72038;BME280;59900;50.788;12.904;2023-05-07T01:38:47;97803.75;;;11.21;82.37
72038;BME280;59900;50.788;12.904;2023-05-07T01:41:13;97807.97;;;11.16;82.43
72038;BME280;59900;50.788;12.904;2023-05-07T01:43:40;97808.16;;;11.14;82.34
72038;BME280;59900;50.788;12.904;2023-05-07T01:46:06;97808.78;;;11.16;83.74
72038;BME280;59900;50.788;12.904;2023-05-07T01:48:33;97807.13;;;11.15;84.36
72038;BME280;59900;50.788;12.904;2023-05-07T01:51:00;97808.38;;;11.19;84.44
72038;BME280;59900;50.788;12.904;2023-05-07T01:53:27;97814.09;;;11.23;84.98
72038;BME280;59900;50.788;12.904;2023-05-07T01:55:53;97812.28;;;11.23;84.05
72038;BME280;59900;50.788;12.904;2023-05-07T01:58:18;97815.28;;;11.20;84.24
72038;BME280;59900;50.788;12.904;2023-05-07T02:00:43;97816.50;;;11.18;84.33
72038;BME280;59900;50.788;12.904;2023-05-07T02:03:09;97814.00;;;11.10;84.50
72038;BME280;59900;50.788;12.904;2023-05-07T02:05:34;97816.81;;;11.08;85.54
72038;BME280;59900;50.788;12.904;2023-05-07T02:07:59;97817.88;;;11.14;85.68
72038;BME280;59900;50.788;12.904;2023-05-07T02:10:24;97817.06;;;11.13;85.97
72038;BME280;59900;50.788;12.904;2023-05-07T02:12:50;97822.25;;;11.07;85.17
72038;BME280;59900;50.788;12.904;2023-05-07T02:15:15;97819.63;;;11.07;86.77
72038;BME280;59900;50.788;12.904;2023-05-07T02:18:02;97824.34;;;11.11;87.00
72038;BME280;59900;50.788;12.904;2023-05-07T02:20:28;97824.13;;;11.13;86.55
72038;BME280;59900;50.788;12.904;2023-05-07T02:22:53;97834.63;;;11.06;86.51
72038;BME280;59900;50.788;12.904;2023-05-07T02:25:19;97829.38;;;11.06;86.99
72038;BME280;59900;50.788;12.904;2023-05-07T02:27:44;97830.59;;;11.10;86.76
72038;BME280;59900;50.788;12.904;2023-05-07T02:30:10;97828.97;;;11.09;85.71
72038;BME280;59900;50.788;12.904;2023-05-07T02:32:35;97823.47;;;11.04;87.43
72038;BME280;59900;50.788;12.904;2023-05-07T02:35:00;97827.50;;;11.00;87.22
72038;BME280;59900;50.788;12.904;2023-05-07T02:37:26;97826.47;;;11.01;87.85
72038;BME280;59900;50.788;12.904;2023-05-07T02:39:51;97818.94;;;10.92;86.99
72038;BME280;59900;50.788;12.904;2023-05-07T02:42:16;97826.38;;;10.88;87.43
72038;BME280;59900;50.788;12.904;2023-05-07T02:44:41;97820.69;;;10.85;87.62
72038;BME280;59900;50.788;12.904;2023-05-07T02:47:07;97821.13;;;10.88;88.50
72038;BME280;59900;50.788;12.904;2023-05-07T02:49:33;97824.75;;;10.87;88.62
72038;BME280;59900;50.788;12.904;2023-05-07T02:51:59;97826.78;;;10.85;88.59
72038;BME280;59900;50.788;12.904;2023-05-07T02:54:24;97831.22;;;10.85;88.53
72038;BME280;59900;50.788;12.904;2023-05-07T02:56:49;97832.56;;;10.81;88.28
72038;BME280;59900;50.788;12.904;2023-05-07T02:59:15;97831.16;;;10.78;88.63
72038;BME280;59900;50.788;12.904;2023-05-07T03:01:40;97826.31;;;10.82;88.97
72038;BME280;59900;50.788;12.904;2023-05-07T03:04:06;97835.22;;;10.81;88.56
72038;BME280;59900;50.788;12.904;2023-05-07T03:06:31;97834.16;;;10.75;88.07
72038;BME280;59900;50.788;12.904;2023-05-07T03:08:57;97837.16;;;10.72;88.50
72038;BME280;59900;50.788;12.904;2023-05-07T03:11:22;97838.34;;;10.69;89.18
72038;BME280;59900;50.788;12.904;2023-05-07T03:13:47;97844.00;;;10.66;89.01
72038;BME280;59900;50.788;12.904;2023-05-07T03:16:15;97837.91;;;10.66;88.65
72038;BME280;59900;50.788;12.904;2023-05-07T03:18:40;97830.16;;;10.58;88.42
72038;BME280;59900;50.788;12.904;2023-05-07T03:21:06;97830.16;;;10.58;88.89
72038;BME280;59900;50.788;12.904;2023-05-07T03:23:31;97829.72;;;10.54;89.25
72038;BME280;59900;50.788;12.904;2023-05-07T03:25:56;97826.47;;;10.52;88.84
72038;BME280;59900;50.788;12.904;2023-05-07T03:28:21;97831.97;;;10.57;89.62
72038;BME280;59900;50.788;12.904;2023-05-07T03:30:47;97833.00;;;10.56;88.99
72038;BME280;59900;50.788;12.904;2023-05-07T03:33:12;97828.91;;;10.54;89.33
72038;BME280;59900;50.788;12.904;2023-05-07T03:35:37;97827.75;;;10.56;89.13
72038;BME280;59900;50.788;12.904;2023-05-07T03:38:02;97836.03;;;10.60;89.63
72038;BME280;59900;50.788;12.904;2023-05-07T03:40:28;97837.88;;;10.59;89.50
72038;BME280;59900;50.788;12.904;2023-05-07T03:42:53;97835.66;;;10.63;89.46
72038;BME280;59900;50.788;12.904;2023-05-07T03:45:19;97840.31;;;10.61;89.14
72038;BME280;59900;50.788;12.904;2023-05-07T03:47:45;97855.09;;;10.62;89.71
72038;BME280;59900;50.788;12.904;2023-05-07T03:50:13;97858.53;;;10.62;89.76
72038;BME280;59900;50.788;12.904;2023-05-07T03:52:38;97858.69;;;10.61;89.13
72038;BME280;59900;50.788;12.904;2023-05-07T03:55:04;97854.06;;;10.63;89.72
72038;BME280;59900;50.788;12.904;2023-05-07T03:57:30;97861.16;;;10.62;88.99
72038;BME280;59900;50.788;12.904;2023-05-07T03:59:56;97858.47;;;10.56;89.19
72038;BME280;59900;50.788;12.904;2023-05-07T04:02:21;97854.63;;;10.58;89.04
72038;BME280;59900;50.788;12.904;2023-05-07T04:04:48;97854.81;;;10.57;88.77
72038;BME280;59900;50.788;12.904;2023-05-07T04:07:13;97860.03;;;10.50;88.40
72038;BME280;59900;50.788;12.904;2023-05-07T04:09:38;97863.84;;;10.48;89.11
72038;BME280;59900;50.788;12.904;2023-05-07T04:12:04;97851.69;;;10.47;89.28
72038;BME280;59900;50.788;12.904;2023-05-07T04:14:29;97860.81;;;10.51;90.00
72038;BME280;59900;50.788;12.904;2023-05-07T04:16:57;97856.56;;;10.50;89.41
72038;BME280;59900;50.788;12.904;2023-05-07T04:19:22;97867.53;;;10.53;90.14
72038;BME280;59900;50.788;12.904;2023-05-07T04:21:47;97866.28;;;10.49;89.88
72038;BME280;59900;50.788;12.904;2023-05-07T04:24:12;97858.84;;;10.53;89.90
72038;BME280;59900;50.788;12.904;2023-05-07T04:26:38;97858.84;;;10.53;89.62
72038;BME280;59900;50.788;12.904;2023-05-07T04:29:04;97865.91;;;10.52;89.63
72038;BME280;59900;50.788;12.904;2023-05-07T04:31:29;97862.06;;;10.55;90.06
72038;BME280;59900;50.788;12.904;2023-05-07T04:33:55;97867.34;;;10.55;90.04
72038;BME280;59900;50.788;12.904;2023-05-07T04:36:20;97858.84;;;10.53;89.18
72038;BME280;59900;50.788;12.904;2023-05-07T04:38:46;97859.22;;;10.50;89.41
72038;BME280;59900;50.788;12.904;2023-05-07T04:41:12;97863.44;;;10.51;89.73
72038;BME280;59900;50.788;12.904;2023-05-07T04:43:38;97868.31;;;10.54;89.69
72038;BME280;59900;50.788;12.904;2023-05-07T04:46:03;97871.31;;;10.51;89.51
72038;BME280;59900;50.788;12.904;2023-05-07T04:48:28;97876.84;;;10.56;90.52
72038;BME280;59900;50.788;12.904;2023-05-07T04:50:55;97869.72;;;10.50;89.76
72038;BME280;59900;50.788;12.904;2023-05-07T04:53:20;97876.19;;;10.54;90.14
72038;BME280;59900;50.788;12.904;2023-05-07T04:55:46;97871.78;;;10.54;90.55
72038;BME280;59900;50.788;12.904;2023-05-07T04:58:11;97877.84;;;10.55;90.22
72038;BME280;59900;50.788;12.904;2023-05-07T05:00:37;97879.28;;;10.57;89.92
72038;BME280;59900;50.788;12.904;2023-05-07T05:03:03;97883.72;;;10.57;89.77
72038;BME280;59900;50.788;12.904;2023-05-07T05:05:29;97877.47;;;10.58;89.91
72038;BME280;59900;50.788;12.904;2023-05-07T05:07:54;97877.72;;;10.63;90.04
72038;BME280;59900;50.788;12.904;2023-05-07T05:10:19;97887.22;;;10.64;89.52
72038;BME280;59900;50.788;12.904;2023-05-07T05:12:44;97880.53;;;10.61;89.95
72038;BME280;59900;50.788;12.904;2023-05-07T05:15:11;97881.97;;;10.64;90.18
72038;BME280;59900;50.788;12.904;2023-05-07T05:17:36;97885.59;;;10.63;89.90
72038;BME280;59900;50.788;12.904;2023-05-07T05:20:02;97890.31;;;10.67;89.57
72038;BME280;59900;50.788;12.904;2023-05-07T05:22:27;97894.94;;;10.65;88.89
72038;BME280;59900;50.788;12.904;2023-05-07T05:24:54;97887.44;;;10.62;88.55
72038;BME280;59900;50.788;12.904;2023-05-07T05:27:20;97886.78;;;10.60;88.45
72038;BME280;59900;50.788;12.904;2023-05-07T05:29:45;97891.22;;;10.60;89.77
72038;BME280;59900;50.788;12.904;2023-05-07T05:32:10;97892.25;;;10.59;88.93
72038;BME280;59900;50.788;12.904;2023-05-07T05:34:35;97899.31;;;10.58;87.29
72038;BME280;59900;50.788;12.904;2023-05-07T05:37:01;97903.00;;;10.64;88.87
72038;BME280;59900;50.788;12.904;2023-05-07T05:39:26;97901.81;;;10.66;88.21
72038;BME280;59900;50.788;12.904;2023-05-07T05:41:51;97903.25;;;10.69;87.52
72038;BME280;59900;50.788;12.904;2023-05-07T05:44:17;97913.22;;;10.74;87.70
72038;BME280;59900;50.788;12.904;2023-05-07T05:46:42;97916.00;;;10.72;87.04
72038;BME280;59900;50.788;12.904;2023-05-07T05:49:07;97914.66;;;10.76;86.77
72038;BME280;59900;50.788;12.904;2023-05-07T05:51:33;97916.91;;;10.79;87.19
72038;BME280;59900;50.788;12.904;2023-05-07T05:53:58;97915.47;;;10.77;86.81
72038;BME280;59900;50.788;12.904;2023-05-07T05:56:24;97916.28;;;10.77;86.84
72038;BME280;59900;50.788;12.904;2023-05-07T05:58:49;97909.56;;;10.75;86.52
72038;BME280;59900;50.788;12.904;2023-05-07T06:01:14;97916.38;;;10.69;86.65
72038;BME280;59900;50.788;12.904;2023-05-07T06:03:40;97919.22;;;10.67;87.11
72038;BME280;59900;50.788;12.904;2023-05-07T06:06:05;97927.56;;;10.71;86.87
72038;BME280;59900;50.788;12.904;2023-05-07T06:08:30;97923.09;;;10.72;87.10
72038;BME280;59900;50.788;12.904;2023-05-07T06:10:56;97916.59;;;10.67;86.85
72038;BME280;59900;50.788;12.904;2023-05-07T06:13:21;97926.34;;;10.74;87.29
72038;BME280;59900;50.788;12.904;2023-05-07T06:15:47;97932.47;;;10.81;87.33
72038;BME280;59900;50.788;12.904;2023-05-07T06:18:13;97930.28;;;10.84;85.79
72038;BME280;59900;50.788;12.904;2023-05-07T06:20:38;97940.50;;;10.94;86.72
72038;BME280;59900;50.788;12.904;2023-05-07T06:23:04;97927.97;;;10.96;86.00
72038;BME280;59900;50.788;12.904;2023-05-07T06:25:29;97925.34;;;10.96;85.61
72038;BME280;59900;50.788;12.904;2023-05-07T06:27:54;97929.59;;;10.97;85.21
72038;BME280;59900;50.788;12.904;2023-05-07T06:30:19;97932.31;;;11.03;85.44
72038;BME280;59900;50.788;12.904;2023-05-07T06:32:45;97936.53;;;11.04;85.30
72038;BME280;59900;50.788;12.904;2023-05-07T06:35:10;97945.94;;;11.13;84.72
72038;BME280;59900;50.788;12.904;2023-05-07T06:37:35;97946.00;;;11.20;84.48
72038;BME280;59900;50.788;12.904;2023-05-07T06:40:04;97943.00;;;11.23;85.04
72038;BME280;59900;50.788;12.904;2023-05-07T06:42:29;97943.44;;;11.27;83.24
72038;BME280;59900;50.788;12.904;2023-05-07T06:44:54;97941.41;;;11.29;84.22
72038;BME280;59900;50.788;12.904;2023-05-07T06:47:20;97943.88;;;11.30;83.65
72038;BME280;59900;50.788;12.904;2023-05-07T06:49:45;97950.94;;;11.30;83.85
72038;BME280;59900;50.788;12.904;2023-05-07T06:52:10;97955.81;;;11.33;83.43
72038;BME280;59900;50.788;12.904;2023-05-07T06:54:36;97954.25;;;11.38;82.00
72038;BME280;59900;50.788;12.904;2023-05-07T06:57:01;97953.66;;;11.43;81.75
72038;BME280;59900;50.788;12.904;2023-05-07T06:59:26;97959.16;;;11.48;81.70
72038;BME280;59900;50.788;12.904;2023-05-07T07:01:51;97953.91;;;11.48;82.02
72038;BME280;59900;50.788;12.904;2023-05-07T07:04:17;97959.59;;;11.51;81.24
72038;BME280;59900;50.788;12.904;2023-05-07T07:06:42;97962.06;;;11.53;80.45
72038;BME280;59900;50.788;12.904;2023-05-07T07:09:07;97967.31;;;11.53;79.50
72038;BME280;59900;50.788;12.904;2023-05-07T07:11:32;97962.44;;;11.50;81.27
72038;BME280;59900;50.788;12.904;2023-05-07T07:13:57;97960.41;;;11.52;80.63
72038;BME280;59900;50.788;12.904;2023-05-07T07:16:24;97962.06;;;11.53;79.44
72038;BME280;59900;50.788;12.904;2023-05-07T07:18:49;97953.13;;;11.54;80.29
72038;BME280;59900;50.788;12.904;2023-05-07T07:21:14;97955.22;;;11.58;80.05
72038;BME280;59900;50.788;12.904;2023-05-07T07:23:39;97961.53;;;11.64;80.34
72038;BME280;59900;50.788;12.904;2023-05-07T07:26:05;97953.50;;;11.72;79.04
72038;BME280;59900;50.788;12.904;2023-05-07T07:28:31;97964.28;;;11.77;80.25
72038;BME280;59900;50.788;12.904;2023-05-07T07:30:57;97963.09;;;11.79;77.64
72038;BME280;59900;50.788;12.904;2023-05-07T07:33:22;97971.66;;;11.88;79.26
72038;BME280;59900;50.788;12.904;2023-05-07T07:35:47;97964.97;;;11.92;77.93
72038;BME280;59900;50.788;12.904;2023-05-07T07:38:12;97973.06;;;11.91;77.49
72038;BME280;59900;50.788;12.904;2023-05-07T07:40:41;97978.56;;;11.96;77.59
72038;BME280;59900;50.788;12.904;2023-05-07T07:43:08;97981.03;;;11.97;77.82
72038;BME280;59900;50.788;12.904;2023-05-07T07:45:34;97970.28;;;11.99;77.82
72038;BME280;59900;50.788;12.904;2023-05-07T07:47:59;97976.78;;;12.03;78.03
72038;BME280;59900;50.788;12.904;2023-05-07T07:50:25;97981.84;;;12.04;77.04
72038;BME280;59900;50.788;12.904;2023-05-07T07:52:50;97973.38;;;12.09;77.46
72038;BME280;59900;50.788;12.904;2023-05-07T07:55:19;97982.72;;;12.11;76.32
72038;BME280;59900;50.788;12.904;2023-05-07T07:57:47;97978.50;;;12.17;76.92
72038;BME280;59900;50.788;12.904;2023-05-07T08:00:12;97973.00;;;12.18;75.46
72038;BME280;59900;50.788;12.904;2023-05-07T08:02:38;97974.88;;;12.24;76.09
72038;BME280;59900;50.788;12.904;2023-05-07T08:05:03;97982.00;;;12.30;76.98
72038;BME280;59900;50.788;12.904;2023-05-07T08:07:29;97981.78;;;12.25;74.31
72038;BME280;59900;50.788;12.904;2023-05-07T08:09:54;97979.53;;;12.22;73.88
72038;BME280;59900;50.788;12.904;2023-05-07T08:12:20;97985.66;;;12.29;76.70
72038;BME280;59900;50.788;12.904;2023-05-07T08:14:45;97978.41;;;12.38;76.23
72038;BME280;59900;50.788;12.904;2023-05-07T08:17:10;97977.00;;;12.49;74.88
72038;BME280;59900;50.788;12.904;2023-05-07T08:19:36;97985.34;;;12.52;73.82
72038;BME280;59900;50.788;12.904;2023-05-07T08:22:02;97979.28;;;12.58;73.70
72038;BME280;59900;50.788;12.904;2023-05-07T08:24:29;97980.50;;;12.62;72.16
72038;BME280;59900;50.788;12.904;2023-05-07T08:26:54;97987.41;;;12.63;73.07
72038;BME280;59900;50.788;12.904;2023-05-07T08:29:19;97985.75;;;12.62;72.21
72038;BME280;59900;50.788;12.904;2023-05-07T08:31:45;97985.38;;;12.59;73.05
72038;BME280;59900;50.788;12.904;2023-05-07T08:34:10;97987.75;;;12.54;71.26
72038;BME280;59900;50.788;12.904;2023-05-07T08:36:35;97988.16;;;12.51;75.34
72038;BME280;59900;50.788;12.904;2023-05-07T08:39:00;97983.72;;;12.51;74.27
72038;BME280;59900;50.788;12.904;2023-05-07T08:41:26;97988.16;;;12.51;75.26
72038;BME280;59900;50.788;12.904;2023-05-07T08:43:51;97988.16;;;12.51;76.63
72038;BME280;59900;50.788;12.904;2023-05-07T08:46:18;97997.50;;;12.47;73.22
72038;BME280;59900;50.788;12.904;2023-05-07T08:48:48;97990.16;;;12.42;73.38
72038;BME280;59900;50.788;12.904;2023-05-07T08:51:19;97982.66;;;12.46;74.71
72038;BME280;59900;50.788;12.904;2023-05-07T08:53:46;97989.41;;;12.55;73.94
72038;BME280;59900;50.788;12.904;2023-05-07T08:56:14;97991.25;;;12.61;73.35
72038;BME280;59900;50.788;12.904;2023-05-07T08:58:41;97997.78;;;12.71;75.17
72038;BME280;59900;50.788;12.904;2023-05-07T09:01:09;97993.13;;;12.80;73.27
72038;BME280;59900;50.788;12.904;2023-05-07T09:03:37;98001.06;;;12.86;72.38
72038;BME280;59900;50.788;12.904;2023-05-07T09:06:03;98003.50;;;12.94;72.51
72038;BME280;59900;50.788;12.904;2023-05-07T09:08:28;98004.78;;;13.05;70.97
72038;BME280;59900;50.788;12.904;2023-05-07T09:10:54;98006.00;;;13.09;70.41
72038;BME280;59900;50.788;12.904;2023-05-07T09:13:19;98004.63;;;13.20;71.30
72038;BME280;59900;50.788;12.904;2023-05-07T09:15:45;97996.94;;;13.31;70.64
72038;BME280;59900;50.788;12.904;2023-05-07T09:18:10;98001.41;;;13.44;72.05
72038;BME280;59900;50.788;12.904;2023-05-07T09:20:37;97994.50;;;13.50;67.00
72038;BME280;59900;50.788;12.904;2023-05-07T09:23:02;97997.34;;;13.48;68.48
72038;BME280;59900;50.788;12.904;2023-05-07T09:25:33;97992.06;;;13.68;68.62
72038;BME280;59900;50.788;12.904;2023-05-07T09:27:59;97992.03;;;13.74;67.86
72038;BME280;59900;50.788;12.904;2023-05-07T09:30:29;97989.00;;;13.84;67.60
72038;BME280;59900;50.788;12.904;2023-05-07T09:32:55;97988.78;;;13.92;68.41
72038;BME280;59900;50.788;12.904;2023-05-07T09:35:20;97987.53;;;14.01;68.39
72038;BME280;59900;50.788;12.904;2023-05-07T09:37:52;97986.13;;;13.92;67.39
72038;BME280;59900;50.788;12.904;2023-05-07T09:40:25;97985.94;;;14.00;68.32
72038;BME280;59900;50.788;12.904;2023-05-07T09:42:51;97983.06;;;14.08;68.61
72038;BME280;59900;50.788;12.904;2023-05-07T09:45:24;97984.66;;;14.22;67.02
72038;BME280;59900;50.788;12.904;2023-05-07T09:47:54;97983.22;;;14.33;67.97
72038;BME280;59900;50.788;12.904;2023-05-07T09:50:30;97987.88;;;14.37;66.88
72038;BME280;59900;50.788;12.904;2023-05-07T09:52:58;97983.00;;;14.41;65.71
72038;BME280;59900;50.788;12.904;2023-05-07T09:55:25;97985.00;;;14.45;65.43
72038;BME280;59900;50.788;12.904;2023-05-07T09:57:51;97987.88;;;14.44;66.10
72038;BME280;59900;50.788;12.904;2023-05-07T10:00:21;97987.41;;;14.53;65.31
72038;BME280;59900;50.788;12.904;2023-05-07T10:02:48;97985.72;;;14.66;68.02
72038;BME280;59900;50.788;12.904;2023-05-07T10:05:14;97991.59;;;14.74;65.76
72038;BME280;59900;50.788;12.904;2023-05-07T10:07:40;97993.78;;;14.84;64.50
72038;BME280;59900;50.788;12.904;2023-05-07T10:10:06;97993.97;;;14.89;64.93
72038;BME280;59900;50.788;12.904;2023-05-07T10:12:32;97992.81;;;14.78;64.82
72038;BME280;59900;50.788;12.904;2023-05-07T10:15:06;97992.59;;;14.80;65.64
72038;BME280;59900;50.788;12.904;2023-05-07T10:17:35;97994.03;;;14.76;64.94
72038;BME280;59900;50.788;12.904;2023-05-07T10:20:00;97989.75;;;14.75;65.87
72038;BME280;59900;50.788;12.904;2023-05-07T10:22:26;97990.59;;;14.75;66.28
72038;BME280;59900;50.788;12.904;2023-05-07T10:24:53;97986.78;;;14.65;64.53
72038;BME280;59900;50.788;12.904;2023-05-07T10:27:21;97987.56;;;14.65;65.29
72038;BME280;59900;50.788;12.904;2023-05-07T10:32:39;97995.97;;;14.55;65.38
72038;BME280;59900;50.788;12.904;2023-05-07T10:35:10;97986.56;;;14.66;65.77
72038;BME280;59900;50.788;12.904;2023-05-07T10:37:39;97993.06;;;14.70;65.47
72038;BME280;59900;50.788;12.904;2023-05-07T10:40:05;97983.09;;;14.59;64.50
72038;BME280;59900;50.788;12.904;2023-05-07T10:42:32;97984.75;;;14.53;65.16
72038;BME280;59900;50.788;12.904;2023-05-07T10:44:57;97983.34;;;14.57;65.88
72038;BME280;59900;50.788;12.904;2023-05-07T10:47:22;97982.25;;;14.72;66.56
72038;BME280;59900;50.788;12.904;2023-05-07T10:52:18;97969.88;;;14.66;65.41
72038;BME280;59900;50.788;12.904;2023-05-07T10:54:44;97971.91;;;14.64;65.58
72038;BME280;59900;50.788;12.904;2023-05-07T10:57:32;97960.75;;;14.62;64.44
72038;BME280;59900;50.788;12.904;2023-05-07T10:59:58;97958.94;;;14.55;64.52
72038;BME280;59900;50.788;12.904;2023-05-07T11:05:23;97961.22;;;14.45;66.07
72038;BME280;59900;50.788;12.904;2023-05-07T11:08:00;97969.09;;;14.58;66.04
72038;BME280;59900;50.788;12.904;2023-05-07T11:13:17;97967.16;;;14.79;65.29
72038;BME280;59900;50.788;12.904;2023-05-07T11:15:47;97968.44;;;14.70;64.84
72038;BME280;59900;50.788;12.904;2023-05-07T11:18:17;97963.56;;;14.67;64.90
72038;BME280;59900;50.788;12.904;2023-05-07T11:20:53;97970.00;;;14.77;65.09
72038;BME280;59900;50.788;12.904;2023-05-07T11:26:04;97957.69;;;14.96;65.72
72038;BME280;59900;50.788;12.904;2023-05-07T11:28:30;97963.72;;;15.09;65.39
72038;BME280;59900;50.788;12.904;2023-05-07T11:30:56;97971.16;;;15.26;66.92
72038;BME280;59900;50.788;12.904;2023-05-07T11:33:22;97963.91;;;15.39;65.00
72038;BME280;59900;50.788;12.904;2023-05-07T11:35:47;97961.97;;;15.53;64.68
72038;BME280;59900;50.788;12.904;2023-05-07T11:38:13;97963.41;;;15.55;63.53
72038;BME280;59900;50.788;12.904;2023-05-07T11:40:52;97962.88;;;15.47;63.20
72038;BME280;59900;50.788;12.904;2023-05-07T11:43:18;97962.44;;;15.50;63.61
72038;BME280;59900;50.788;12.904;2023-05-07T11:45:47;97959.78;;;15.50;63.78
72038;BME280;59900;50.788;12.904;2023-05-07T11:48:13;97962.16;;;15.58;63.77
72038;BME280;59900;50.788;12.904;2023-05-07T11:50:50;97963.44;;;15.74;63.20
72038;BME280;59900;50.788;12.904;2023-05-07T11:53:16;97954.41;;;15.81;62.56
72038;BME280;59900;50.788;12.904;2023-05-07T11:55:42;97962.06;;;15.89;62.61
72038;BME280;59900;50.788;12.904;2023-05-07T11:58:10;97960.34;;;15.77;61.53
72038;BME280;59900;50.788;12.904;2023-05-07T12:00:35;97953.72;;;15.86;62.89
72038;BME280;59900;50.788;12.904;2023-05-07T12:03:04;97960.69;;;16.05;61.63
72038;BME280;59900;50.788;12.904;2023-05-07T12:05:30;97953.31;;;16.07;61.58
72038;BME280;59900;50.788;12.904;2023-05-07T12:07:57;97955.03;;;16.19;60.38
72038;BME280;59900;50.788;12.904;2023-05-07T12:10:22;97969.75;;;16.34;60.74
72038;BME280;59900;50.788;12.904;2023-05-07T12:12:47;97969.34;;;16.55;60.34
72038;BME280;59900;50.788;12.904;2023-05-07T12:15:16;97961.69;;;16.76;60.30
72038;BME280;59900;50.788;12.904;2023-05-07T12:17:41;97963.94;;;16.91;59.07
72038;BME280;59900;50.788;12.904;2023-05-07T12:20:07;97956.72;;;17.10;58.52
72038;BME280;59900;50.788;12.904;2023-05-07T12:22:33;97964.59;;;17.16;57.62
72038;BME280;59900;50.788;12.904;2023-05-07T12:24:58;97952.94;;;17.29;56.92
72038;BME280;59900;50.788;12.904;2023-05-07T12:27:25;97956.97;;;17.61;56.98
72038;BME280;59900;50.788;12.904;2023-05-07T12:29:50;97957.00;;;17.84;56.41
72038;BME280;59900;50.788;12.904;2023-05-07T12:32:17;97962.16;;;18.03;56.49
72038;BME280;59900;50.788;12.904;2023-05-07T12:34:43;97950.69;;;18.25;55.65
72038;BME280;59900;50.788;12.904;2023-05-07T12:37:09;97966.16;;;18.40;54.88
72038;BME280;59900;50.788;12.904;2023-05-07T12:39:35;97955.16;;;18.60;53.75
72038;BME280;59900;50.788;12.904;2023-05-07T12:42:00;97960.78;;;18.75;52.95
72038;BME280;59900;50.788;12.904;2023-05-07T12:44:29;97968.16;;;18.84;53.05
72038;BME280;59900;50.788;12.904;2023-05-07T12:46:55;97957.13;;;19.09;52.74
72038;BME280;59900;50.788;12.904;2023-05-07T12:49:20;97952.88;;;19.25;52.29
72038;BME280;59900;50.788;12.904;2023-05-07T12:51:49;97956.78;;;19.34;51.98
72038;BME280;59900;50.788;12.904;2023-05-07T12:54:33;97954.59;;;19.64;51.27
72038;BME280;59900;50.788;12.904;2023-05-07T12:57:05;97965.28;;;19.81;51.11
72038;BME280;59900;50.788;12.904;2023-05-07T12:59:33;97960.69;;;20.14;50.88